Terminal Aerodrome Forecast
Issued by NWS

Home | Current Version | Previous Version | Text Only | Print | Product List | Glossary On
Versions: 1 2 3 4 5 6 7 8 9 10 11 12 13 14 15 16 17
000
FTUS41 KBGM 280500
TAFRME
TAF
KRME 280533Z 2806/2906 12005KT P6SM -SHRA SCT025 OVC040
      TEMPO 2806/2808 3SM TSRA BR OVC025CB
     FM281100 12005KT 5SM -SHRA BR OVC015
     FM281800 31012KT P6SM -SHRA OVC025
     FM290000 28008KT P6SM -SHRA OVC025=

USA.gov is the U.S. government's official web portal to all federal, state and local government web resources and services.